sensor_id;sensor_type;location;lat;lon;timestamp;temperature;humidity
48998;DHT22;34807;51.456;7.244;2022-12-31T00:01:07;9.80;99.90
48998;DHT22;34807;51.456;7.244;2022-12-31T00:03:33;9.80;99.90
48998;DHT22;34807;51.456;7.244;2022-12-31T00:05:58;9.90;99.90
48998;DHT22;34807;51.456;7.244;2022-12-31T00:08:24;9.90;99.90
48998;DHT22;34807;51.456;7.244;2022-12-31T00:10:49;9.90;99.90
48998;DHT22;34807;51.456;7.244;2022-12-31T00:13:15;9.90;99.90
48998;DHT22;34807;51.456;7.244;2022-12-31T00:15:41;9.90;99.90
48998;DHT22;34807;51.456;7.244;2022-12-31T00:18:07;10.00;99.90
48998;DHT22;34807;51.456;7.244;2022-12-31T00:20:33;9.90;99.90
48998;DHT22;34807;51.456;7.244;2022-12-31T00:22:58;9.90;99.90
48998;DHT22;34807;51.456;7.244;2022-12-31T00:25:24;10.00;99.90
48998;DHT22;34807;51.456;7.244;2022-12-31T00:27:49;9.90;99.90
48998;DHT22;34807;51.456;7.244;2022-12-31T00:30:15;9.90;99.90
48998;DHT22;34807;51.456;7.244;2022-12-31T00:32:40;10.00;99.90
48998;DHT22;34807;51.456;7.244;2022-12-31T00:35:06;10.00;99.90
48998;DHT22;34807;51.456;7.244;2022-12-31T00:37:31;10.00;99.90
48998;DHT22;34807;51.456;7.244;2022-12-31T00:39:57;10.00;99.90
48998;DHT22;34807;51.456;7.244;2022-12-31T00:42:22;10.00;99.90
48998;DHT22;34807;51.456;7.244;2022-12-31T00:44:48;10.00;99.90
48998;DHT22;34807;51.456;7.244;2022-12-31T00:47:13;10.00;99.90
48998;DHT22;34807;51.456;7.244;2022-12-31T00:49:39;10.10;99.90
48998;DHT22;34807;51.456;7.244;2022-12-31T00:52:04;10.00;99.90
48998;DHT22;34807;51.456;7.244;2022-12-31T00:54:30;10.00;99.90
48998;DHT22;34807;51.456;7.244;2022-12-31T00:56:55;10.00;99.90
48998;DHT22;34807;51.456;7.244;2022-12-31T00:59:21;10.00;99.90
48998;DHT22;34807;51.456;7.244;2022-12-31T01:01:46;10.00;99.90
48998;DHT22;34807;51.456;7.244;2022-12-31T01:04:13;10.00;99.90
48998;DHT22;34807;51.456;7.244;2022-12-31T01:06:39;10.10;99.90
48998;DHT22;34807;51.456;7.244;2022-12-31T01:09:05;10.10;99.90
48998;DHT22;34807;51.456;7.244;2022-12-31T01:11:31;10.10;99.90
48998;DHT22;34807;51.456;7.244;2022-12-31T01:16:23;10.00;99.90
48998;DHT22;34807;51.456;7.244;2022-12-31T01:18:49;10.00;99.90
48998;DHT22;34807;51.456;7.244;2022-12-31T01:21:15;10.10;99.90
48998;DHT22;34807;51.456;7.244;2022-12-31T01:23:41;10.10;99.90
48998;DHT22;34807;51.456;7.244;2022-12-31T01:26:07;10.10;99.90
48998;DHT22;34807;51.456;7.244;2022-12-31T01:28:33;10.10;99.90
48998;DHT22;34807;51.456;7.244;2022-12-31T01:31:02;10.10;99.90
48998;DHT22;34807;51.456;7.244;2022-12-31T01:33:27;10.10;99.90
48998;DHT22;34807;51.456;7.244;2022-12-31T01:35:53;10.10;99.90
48998;DHT22;34807;51.456;7.244;2022-12-31T01:38:18;10.10;99.90
48998;DHT22;34807;51.456;7.244;2022-12-31T01:40:44;10.10;99.90
48998;DHT22;34807;51.456;7.244;2022-12-31T01:43:18;10.10;99.90
48998;DHT22;34807;51.456;7.244;2022-12-31T01:45:45;10.10;99.90
48998;DHT22;34807;51.456;7.244;2022-12-31T01:48:11;10.10;99.90
48998;DHT22;34807;51.456;7.244;2022-12-31T01:50:37;10.10;99.90
48998;DHT22;34807;51.456;7.244;2022-12-31T01:53:05;10.20;99.90
48998;DHT22;34807;51.456;7.244;2022-12-31T01:55:32;10.20;99.90
48998;DHT22;34807;51.456;7.244;2022-12-31T01:58:00;10.20;99.90
48998;DHT22;34807;51.456;7.244;2022-12-31T02:00:29;10.20;99.90
48998;DHT22;34807;51.456;7.244;2022-12-31T02:02:55;10.20;99.90
48998;DHT22;34807;51.456;7.244;2022-12-31T02:07:49;10.30;99.90
48998;DHT22;34807;51.456;7.244;2022-12-31T02:10:14;10.20;99.90
48998;DHT22;34807;51.456;7.244;2022-12-31T02:12:40;10.30;99.90
48998;DHT22;34807;51.456;7.244;2022-12-31T02:15:06;10.30;99.90
48998;DHT22;34807;51.456;7.244;2022-12-31T02:17:47;10.30;99.90
48998;DHT22;34807;51.456;7.244;2022-12-31T02:28:33;10.40;99.90
48998;DHT22;34807;51.456;7.244;2022-12-31T02:31:08;10.40;99.90
48998;DHT22;34807;51.456;7.244;2022-12-31T02:33:37;10.40;99.90
48998;DHT22;34807;51.456;7.244;2022-12-31T02:36:08;10.40;99.90
48998;DHT22;34807;51.456;7.244;2022-12-31T02:38:37;10.40;99.90
48998;DHT22;34807;51.456;7.244;2022-12-31T02:41:04;10.50;99.90
48998;DHT22;34807;51.456;7.244;2022-12-31T02:43:30;10.50;99.90
48998;DHT22;34807;51.456;7.244;2022-12-31T02:46:11;10.50;99.90
48998;DHT22;34807;51.456;7.244;2022-12-31T02:48:45;10.50;99.90
48998;DHT22;34807;51.456;7.244;2022-12-31T02:51:29;10.50;99.90
48998;DHT22;34807;51.456;7.244;2022-12-31T02:56:30;10.60;99.90
48998;DHT22;34807;51.456;7.244;2022-12-31T02:59:01;10.60;99.90
48998;DHT22;34807;51.456;7.244;2022-12-31T03:01:47;10.60;99.90
48998;DHT22;34807;51.456;7.244;2022-12-31T03:04:33;10.60;99.90
48998;DHT22;34807;51.456;7.244;2022-12-31T03:07:07;10.70;99.90
48998;DHT22;34807;51.456;7.244;2022-12-31T03:09:34;10.70;99.90
48998;DHT22;34807;51.456;7.244;2022-12-31T03:12:00;10.70;99.90
48998;DHT22;34807;51.456;7.244;2022-12-31T03:14:44;10.70;99.90
48998;DHT22;34807;51.456;7.244;2022-12-31T03:17:10;10.70;99.90
48998;DHT22;34807;51.456;7.244;2022-12-31T03:19:35;10.70;99.90
48998;DHT22;34807;51.456;7.244;2022-12-31T03:22:19;10.70;99.90
48998;DHT22;34807;51.456;7.244;2022-12-31T03:24:51;10.80;99.90
48998;DHT22;34807;51.456;7.244;2022-12-31T03:27:35;10.80;99.90
48998;DHT22;34807;51.456;7.244;2022-12-31T03:30:01;10.80;99.90
48998;DHT22;34807;51.456;7.244;2022-12-31T03:32:27;10.80;99.90
48998;DHT22;34807;51.456;7.244;2022-12-31T03:34:52;10.80;99.90
48998;DHT22;34807;51.456;7.244;2022-12-31T03:37:18;10.80;99.90
48998;DHT22;34807;51.456;7.244;2022-12-31T03:39:43;10.80;99.90
48998;DHT22;34807;51.456;7.244;2022-12-31T03:42:09;10.80;99.90
48998;DHT22;34807;51.456;7.244;2022-12-31T03:44:34;10.90;99.90
48998;DHT22;34807;51.456;7.244;2022-12-31T03:47:00;10.90;99.90
48998;DHT22;34807;51.456;7.244;2022-12-31T03:49:25;10.90;99.90
48998;DHT22;34807;51.456;7.244;2022-12-31T03:51:50;10.90;99.90
48998;DHT22;34807;51.456;7.244;2022-12-31T03:54:16;10.90;99.90
48998;DHT22;34807;51.456;7.244;2022-12-31T03:56:41;10.90;99.90
48998;DHT22;34807;51.456;7.244;2022-12-31T03:59:07;10.90;99.90
48998;DHT22;34807;51.456;7.244;2022-12-31T04:01:32;11.00;99.90
48998;DHT22;34807;51.456;7.244;2022-12-31T04:03:58;11.00;99.90
48998;DHT22;34807;51.456;7.244;2022-12-31T04:06:23;11.00;99.90
48998;DHT22;34807;51.456;7.244;2022-12-31T04:08:49;11.10;99.90
48998;DHT22;34807;51.456;7.244;2022-12-31T04:11:14;11.10;99.90
48998;DHT22;34807;51.456;7.244;2022-12-31T04:13:40;11.10;99.90
48998;DHT22;34807;51.456;7.244;2022-12-31T04:16:05;11.10;99.90
48998;DHT22;34807;51.456;7.244;2022-12-31T04:18:31;11.20;99.90
48998;DHT22;34807;51.456;7.244;2022-12-31T04:21:03;11.20;99.90
48998;DHT22;34807;51.456;7.244;2022-12-31T04:23:29;11.20;99.90
48998;DHT22;34807;51.456;7.244;2022-12-31T04:25:54;11.20;99.90
48998;DHT22;34807;51.456;7.244;2022-12-31T04:28:20;11.20;99.90
48998;DHT22;34807;51.456;7.244;2022-12-31T04:30:45;11.20;99.90
48998;DHT22;34807;51.456;7.244;2022-12-31T04:33:11;11.20;99.90
48998;DHT22;34807;51.456;7.244;2022-12-31T04:35:36;11.30;99.90
48998;DHT22;34807;51.456;7.244;2022-12-31T04:38:02;11.30;99.90
48998;DHT22;34807;51.456;7.244;2022-12-31T04:40:27;11.30;99.90
48998;DHT22;34807;51.456;7.244;2022-12-31T04:42:53;11.30;99.90
48998;DHT22;34807;51.456;7.244;2022-12-31T04:45:18;11.30;99.90
48998;DHT22;34807;51.456;7.244;2022-12-31T04:47:44;11.30;99.90
48998;DHT22;34807;51.456;7.244;2022-12-31T04:50:09;11.30;99.90
48998;DHT22;34807;51.456;7.244;2022-12-31T04:52:35;11.30;99.90
48998;DHT22;34807;51.456;7.244;2022-12-31T04:55:00;11.30;99.90
48998;DHT22;34807;51.456;7.244;2022-12-31T04:57:26;11.30;99.90
48998;DHT22;34807;51.456;7.244;2022-12-31T04:59:51;11.40;99.90
48998;DHT22;34807;51.456;7.244;2022-12-31T05:02:17;11.40;99.90
48998;DHT22;34807;51.456;7.244;2022-12-31T05:04:42;11.40;99.90
48998;DHT22;34807;51.456;7.244;2022-12-31T05:07:08;11.40;99.90
48998;DHT22;34807;51.456;7.244;2022-12-31T05:09:33;11.50;99.90
48998;DHT22;34807;51.456;7.244;2022-12-31T05:11:58;11.50;99.90
48998;DHT22;34807;51.456;7.244;2022-12-31T05:14:25;11.50;99.90
48998;DHT22;34807;51.456;7.244;2022-12-31T05:16:50;11.50;99.90
48998;DHT22;34807;51.456;7.244;2022-12-31T05:19:16;11.50;99.90
48998;DHT22;34807;51.456;7.244;2022-12-31T05:21:42;11.50;99.90
48998;DHT22;34807;51.456;7.244;2022-12-31T05:24:07;11.50;99.90
48998;DHT22;34807;51.456;7.244;2022-12-31T05:26:33;11.60;99.90
48998;DHT22;34807;51.456;7.244;2022-12-31T05:28:58;11.60;99.90
48998;DHT22;34807;51.456;7.244;2022-12-31T05:31:25;11.60;99.90
48998;DHT22;34807;51.456;7.244;2022-12-31T05:33:51;11.60;99.90
48998;DHT22;34807;51.456;7.244;2022-12-31T05:36:16;11.60;99.90
48998;DHT22;34807;51.456;7.244;2022-12-31T05:38:42;11.60;99.90
48998;DHT22;34807;51.456;7.244;2022-12-31T05:41:07;11.70;99.90
48998;DHT22;34807;51.456;7.244;2022-12-31T05:43:33;11.70;99.90
48998;DHT22;34807;51.456;7.244;2022-12-31T05:45:59;11.70;99.90
48998;DHT22;34807;51.456;7.244;2022-12-31T05:48:26;11.80;99.90
48998;DHT22;34807;51.456;7.244;2022-12-31T05:50:51;11.70;99.90
48998;DHT22;34807;51.456;7.244;2022-12-31T05:53:17;11.80;99.90
48998;DHT22;34807;51.456;7.244;2022-12-31T05:55:43;11.80;99.90
48998;DHT22;34807;51.456;7.244;2022-12-31T05:58:09;11.80;99.90
48998;DHT22;34807;51.456;7.244;2022-12-31T06:00:34;11.80;99.90
48998;DHT22;34807;51.456;7.244;2022-12-31T06:03:00;11.90;99.90
48998;DHT22;34807;51.456;7.244;2022-12-31T06:05:25;11.90;99.90
48998;DHT22;34807;51.456;7.244;2022-12-31T06:07:51;11.90;99.90
48998;DHT22;34807;51.456;7.244;2022-12-31T06:10:16;11.90;99.90
48998;DHT22;34807;51.456;7.244;2022-12-31T06:12:42;11.90;99.90
48998;DHT22;34807;51.456;7.244;2022-12-31T06:15:07;11.90;99.90
48998;DHT22;34807;51.456;7.244;2022-12-31T06:17:33;12.00;99.90
48998;DHT22;34807;51.456;7.244;2022-12-31T06:19:58;12.00;99.90
48998;DHT22;34807;51.456;7.244;2022-12-31T06:22:24;12.00;99.90
48998;DHT22;34807;51.456;7.244;2022-12-31T06:24:49;12.00;99.90
48998;DHT22;34807;51.456;7.244;2022-12-31T06:27:15;12.00;99.90
48998;DHT22;34807;51.456;7.244;2022-12-31T06:29:40;12.00;99.90
48998;DHT22;34807;51.456;7.244;2022-12-31T06:32:06;12.10;99.90
48998;DHT22;34807;51.456;7.244;2022-12-31T06:34:31;12.10;99.90
48998;DHT22;34807;51.456;7.244;2022-12-31T06:36:57;12.10;99.90
48998;DHT22;34807;51.456;7.244;2022-12-31T06:39:22;12.10;99.90
48998;DHT22;34807;51.456;7.244;2022-12-31T06:41:48;12.10;99.90
48998;DHT22;34807;51.456;7.244;2022-12-31T06:44:13;12.10;99.90
48998;DHT22;34807;51.456;7.244;2022-12-31T06:46:39;12.10;99.90
48998;DHT22;34807;51.456;7.244;2022-12-31T06:49:04;12.20;99.90
48998;DHT22;34807;51.456;7.244;2022-12-31T06:51:30;12.20;99.90
48998;DHT22;34807;51.456;7.244;2022-12-31T06:53:55;12.20;99.90
48998;DHT22;34807;51.456;7.244;2022-12-31T06:56:22;12.20;99.90
48998;DHT22;34807;51.456;7.244;2022-12-31T06:58:49;12.20;99.90
48998;DHT22;34807;51.456;7.244;2022-12-31T07:06:35;12.30;99.90
48998;DHT22;34807;51.456;7.244;2022-12-31T07:09:08;12.20;99.90
48998;DHT22;34807;51.456;7.244;2022-12-31T07:11:38;12.20;99.90
48998;DHT22;34807;51.456;7.244;2022-12-31T07:21:58;12.30;99.90
48998;DHT22;34807;51.456;7.244;2022-12-31T07:24:24;12.30;99.90
48998;DHT22;34807;51.456;7.244;2022-12-31T07:43:06;12.40;99.90
48998;DHT22;34807;51.456;7.244;2022-12-31T07:45:53;12.40;99.90
48998;DHT22;34807;51.456;7.244;2022-12-31T07:48:22;12.50;99.90
48998;DHT22;34807;51.456;7.244;2022-12-31T07:50:48;12.40;99.90
48998;DHT22;34807;51.456;7.244;2022-12-31T07:53:14;12.50;99.90
48998;DHT22;34807;51.456;7.244;2022-12-31T07:55:39;12.50;99.90
48998;DHT22;34807;51.456;7.244;2022-12-31T07:58:09;12.50;99.90
48998;DHT22;34807;51.456;7.244;2022-12-31T08:00:41;12.50;99.90
48998;DHT22;34807;51.456;7.244;2022-12-31T08:11:04;12.50;99.90
48998;DHT22;34807;51.456;7.244;2022-12-31T08:13:32;12.60;99.90
48998;DHT22;34807;51.456;7.244;2022-12-31T08:15:58;12.50;99.90
48998;DHT22;34807;51.456;7.244;2022-12-31T08:18:24;12.60;99.90
48998;DHT22;34807;51.456;7.244;2022-12-31T08:23:27;12.60;99.90
48998;DHT22;34807;51.456;7.244;2022-12-31T08:33:27;12.60;99.90
48998;DHT22;34807;51.456;7.244;2022-12-31T08:38:29;12.60;99.90
48998;DHT22;34807;51.456;7.244;2022-12-31T08:46:01;12.70;99.90
48998;DHT22;34807;51.456;7.244;2022-12-31T08:48:41;12.70;99.90
48998;DHT22;34807;51.456;7.244;2022-12-31T08:51:11;12.70;99.90
48998;DHT22;34807;51.456;7.244;2022-12-31T08:53:37;12.70;99.90
48998;DHT22;34807;51.456;7.244;2022-12-31T08:56:14;12.80;99.90
48998;DHT22;34807;51.456;7.244;2022-12-31T09:01:26;12.80;99.90
48998;DHT22;34807;51.456;7.244;2022-12-31T09:04:04;12.80;99.90
48998;DHT22;34807;51.456;7.244;2022-12-31T09:06:35;12.80;99.90
48998;DHT22;34807;51.456;7.244;2022-12-31T09:09:15;12.80;99.90
48998;DHT22;34807;51.456;7.244;2022-12-31T09:11:59;12.80;99.90
48998;DHT22;34807;51.456;7.244;2022-12-31T09:14:37;12.80;99.90
48998;DHT22;34807;51.456;7.244;2022-12-31T09:19:39;12.90;99.90
48998;DHT22;34807;51.456;7.244;2022-12-31T09:22:04;12.90;99.90
48998;DHT22;34807;51.456;7.244;2022-12-31T09:24:30;12.90;99.90
48998;DHT22;34807;51.456;7.244;2022-12-31T09:27:08;12.90;99.90
48998;DHT22;34807;51.456;7.244;2022-12-31T09:30:10;12.90;99.90
48998;DHT22;34807;51.456;7.244;2022-12-31T09:32:32;12.90;99.90
48998;DHT22;34807;51.456;7.244;2022-12-31T09:35:12;13.00;99.90
48998;DHT22;34807;51.456;7.244;2022-12-31T09:40:48;13.00;99.90
48998;DHT22;34807;51.456;7.244;2022-12-31T09:53:46;13.00;99.90
48998;DHT22;34807;51.456;7.244;2022-12-31T09:56:22;13.00;99.90
48998;DHT22;34807;51.456;7.244;2022-12-31T10:04:03;13.10;99.90
48998;DHT22;34807;51.456;7.244;2022-12-31T10:14:34;13.10;99.90
48998;DHT22;34807;51.456;7.244;2022-12-31T10:24:57;13.10;99.90
48998;DHT22;34807;51.456;7.244;2022-12-31T10:30:19;13.10;99.90
48998;DHT22;34807;51.456;7.244;2022-12-31T10:35:44;13.20;99.90
48998;DHT22;34807;51.456;7.244;2022-12-31T10:46:16;13.40;99.90
48998;DHT22;34807;51.456;7.244;2022-12-31T10:51:47;13.40;99.90
48998;DHT22;34807;51.456;7.244;2022-12-31T11:07:46;13.40;99.90
48998;DHT22;34807;51.456;7.244;2022-12-31T11:10:22;13.50;99.90
48998;DHT22;34807;51.456;7.244;2022-12-31T11:20:56;13.50;99.90
48998;DHT22;34807;51.456;7.244;2022-12-31T11:42:02;13.70;99.90
48998;DHT22;34807;51.456;7.244;2022-12-31T11:49:57;13.70;99.90
48998;DHT22;34807;51.456;7.244;2022-12-31T11:52:28;13.70;99.90
48998;DHT22;34807;51.456;7.244;2022-12-31T11:57:45;13.70;99.90
48998;DHT22;34807;51.456;7.244;2022-12-31T12:02:52;13.70;99.90
48998;DHT22;34807;51.456;7.244;2022-12-31T12:05:20;13.70;99.90
48998;DHT22;34807;51.456;7.244;2022-12-31T12:07:47;13.70;99.90
48998;DHT22;34807;51.456;7.244;2022-12-31T12:10:26;13.70;99.90
48998;DHT22;34807;51.456;7.244;2022-12-31T12:12:52;13.70;99.90
48998;DHT22;34807;51.456;7.244;2022-12-31T12:15:23;13.60;99.90
48998;DHT22;34807;51.456;7.244;2022-12-31T12:17:51;13.70;99.90
48998;DHT22;34807;51.456;7.244;2022-12-31T12:20:18;13.60;99.90
48998;DHT22;34807;51.456;7.244;2022-12-31T12:22:52;13.70;99.90
48998;DHT22;34807;51.456;7.244;2022-12-31T12:25:20;13.60;99.90
48998;DHT22;34807;51.456;7.244;2022-12-31T12:27:46;13.60;99.90
48998;DHT22;34807;51.456;7.244;2022-12-31T12:30:22;13.60;99.90
48998;DHT22;34807;51.456;7.244;2022-12-31T12:35:21;13.60;99.90
48998;DHT22;34807;51.456;7.244;2022-12-31T12:37:47;13.60;99.90
48998;DHT22;34807;51.456;7.244;2022-12-31T12:40:22;13.60;99.90
48998;DHT22;34807;51.456;7.244;2022-12-31T12:42:51;13.60;99.90
48998;DHT22;34807;51.456;7.244;2022-12-31T12:45:24;13.60;99.90
48998;DHT22;34807;51.456;7.244;2022-12-31T12:48:00;13.50;99.90
48998;DHT22;34807;51.456;7.244;2022-12-31T12:50:37;13.50;99.90
48998;DHT22;34807;51.456;7.244;2022-12-31T12:55:35;13.50;99.90
48998;DHT22;34807;51.456;7.244;2022-12-31T12:58:25;13.50;99.90
48998;DHT22;34807;51.456;7.244;2022-12-31T13:20:02;13.60;99.90
48998;DHT22;34807;51.456;7.244;2022-12-31T13:24:33;13.50;99.90
48998;DHT22;34807;51.456;7.244;2022-12-31T13:27:04;13.50;99.90
48998;DHT22;34807;51.456;7.244;2022-12-31T13:29:32;13.50;99.90
48998;DHT22;34807;51.456;7.244;2022-12-31T13:31:59;13.50;99.90
48998;DHT22;34807;51.456;7.244;2022-12-31T13:34:27;13.50;99.90
48998;DHT22;34807;51.456;7.244;2022-12-31T13:36:54;13.50;99.90
48998;DHT22;34807;51.456;7.244;2022-12-31T13:39:26;13.50;99.90
48998;DHT22;34807;51.456;7.244;2022-12-31T13:42:36;13.50;99.90
48998;DHT22;34807;51.456;7.244;2022-12-31T13:49:56;13.40;99.90
48998;DHT22;34807;51.456;7.244;2022-12-31T13:57:30;13.40;99.90
48998;DHT22;34807;51.456;7.244;2022-12-31T14:00:00;13.40;99.90
48998;DHT22;34807;51.456;7.244;2022-12-31T14:02:39;13.40;99.90
48998;DHT22;34807;51.456;7.244;2022-12-31T14:07:50;13.50;99.90
48998;DHT22;34807;51.456;7.244;2022-12-31T14:10:17;13.40;99.90
48998;DHT22;34807;51.456;7.244;2022-12-31T14:15:17;13.50;99.90
48998;DHT22;34807;51.456;7.244;2022-12-31T14:25:16;13.50;99.90
48998;DHT22;34807;51.456;7.244;2022-12-31T14:27:44;13.50;99.90
48998;DHT22;34807;51.456;7.244;2022-12-31T14:38:25;13.40;99.90
48998;DHT22;34807;51.456;7.244;2022-12-31T14:40:40;13.50;99.90
48998;DHT22;34807;51.456;7.244;2022-12-31T14:51:36;13.40;99.90
48998;DHT22;34807;51.456;7.244;2022-12-31T14:54:02;13.40;99.90
48998;DHT22;34807;51.456;7.244;2022-12-31T14:56:29;13.40;99.90
48998;DHT22;34807;51.456;7.244;2022-12-31T14:58:56;13.30;99.90
48998;DHT22;34807;51.456;7.244;2022-12-31T15:01:22;13.30;99.90
48998;DHT22;34807;51.456;7.244;2022-12-31T15:03:50;13.30;99.90
48998;DHT22;34807;51.456;7.244;2022-12-31T15:24:21;13.20;99.90
48998;DHT22;34807;51.456;7.244;2022-12-31T15:26:52;13.20;99.90
48998;DHT22;34807;51.456;7.244;2022-12-31T15:29:22;13.20;99.90
48998;DHT22;34807;51.456;7.244;2022-12-31T15:31:48;13.10;99.90
48998;DHT22;34807;51.456;7.244;2022-12-31T15:34:23;13.10;99.90
48998;DHT22;34807;51.456;7.244;2022-12-31T15:36:52;13.10;99.90
48998;DHT22;34807;51.456;7.244;2022-12-31T15:39:23;13.10;99.90
48998;DHT22;34807;51.456;7.244;2022-12-31T15:41:52;13.10;99.90
48998;DHT22;34807;51.456;7.244;2022-12-31T15:46:46;13.00;99.90
48998;DHT22;34807;51.456;7.244;2022-12-31T15:49:16;13.00;99.90
48998;DHT22;34807;51.456;7.244;2022-12-31T15:51:49;13.00;99.90
48998;DHT22;34807;51.456;7.244;2022-12-31T15:54:20;13.00;99.90
48998;DHT22;34807;51.456;7.244;2022-12-31T15:56:46;13.00;99.90
48998;DHT22;34807;51.456;7.244;2022-12-31T15:59:14;13.00;99.90
48998;DHT22;34807;51.456;7.244;2022-12-31T16:01:40;13.00;99.90
48998;DHT22;34807;51.456;7.244;2022-12-31T16:04:13;13.00;99.90
48998;DHT22;34807;51.456;7.244;2022-12-31T16:06:39;12.90;99.90
48998;DHT22;34807;51.456;7.244;2022-12-31T16:09:07;13.00;99.90
48998;DHT22;34807;51.456;7.244;2022-12-31T16:11:34;13.00;99.90
48998;DHT22;34807;51.456;7.244;2022-12-31T16:14:00;13.00;99.90
48998;DHT22;34807;51.456;7.244;2022-12-31T16:16:26;12.90;99.90
48998;DHT22;34807;51.456;7.244;2022-12-31T16:18:52;13.00;99.90
48998;DHT22;34807;51.456;7.244;2022-12-31T16:21:31;12.90;99.90
48998;DHT22;34807;51.456;7.244;2022-12-31T16:23:59;12.90;99.90
48998;DHT22;34807;51.456;7.244;2022-12-31T16:26:28;12.90;99.90
48998;DHT22;34807;51.456;7.244;2022-12-31T16:28:57;13.00;99.90
48998;DHT22;34807;51.456;7.244;2022-12-31T16:31:24;12.90;99.90
48998;DHT22;34807;51.456;7.244;2022-12-31T16:33:51;12.90;99.90
48998;DHT22;34807;51.456;7.244;2022-12-31T16:36:20;12.90;99.90
48998;DHT22;34807;51.456;7.244;2022-12-31T16:38:46;12.90;99.90
48998;DHT22;34807;51.456;7.244;2022-12-31T16:43:41;12.90;99.90
48998;DHT22;34807;51.456;7.244;2022-12-31T16:48:33;13.00;99.90
48998;DHT22;34807;51.456;7.244;2022-12-31T16:50:58;13.10;99.90
48998;DHT22;34807;51.456;7.244;2022-12-31T16:53:25;13.10;99.90
48998;DHT22;34807;51.456;7.244;2022-12-31T16:55:56;13.20;99.90
48998;DHT22;34807;51.456;7.244;2022-12-31T16:58:28;13.20;99.90
48998;DHT22;34807;51.456;7.244;2022-12-31T17:00:55;13.30;99.90
48998;DHT22;34807;51.456;7.244;2022-12-31T17:03:24;13.30;99.90
48998;DHT22;34807;51.456;7.244;2022-12-31T17:08:40;13.50;99.90
48998;DHT22;34807;51.456;7.244;2022-12-31T17:11:21;13.60;99.90
48998;DHT22;34807;51.456;7.244;2022-12-31T17:13:59;13.60;99.90
48998;DHT22;34807;51.456;7.244;2022-12-31T17:16:30;13.80;99.90
48998;DHT22;34807;51.456;7.244;2022-12-31T17:18:56;14.40;99.90
48998;DHT22;34807;51.456;7.244;2022-12-31T17:21:23;15.00;99.90
48998;DHT22;34807;51.456;7.244;2022-12-31T17:23:51;15.50;99.80
48998;DHT22;34807;51.456;7.244;2022-12-31T17:26:24;15.80;99.40
48998;DHT22;34807;51.456;7.244;2022-12-31T17:28:51;16.10;99.10
48998;DHT22;34807;51.456;7.244;2022-12-31T17:31:24;16.30;99.30
48998;DHT22;34807;51.456;7.244;2022-12-31T17:33:51;16.40;98.80
48998;DHT22;34807;51.456;7.244;2022-12-31T17:36:19;16.40;97.70
48998;DHT22;34807;51.456;7.244;2022-12-31T17:38:46;16.50;97.10
48998;DHT22;34807;51.456;7.244;2022-12-31T17:43:40;16.60;97.90
48998;DHT22;34807;51.456;7.244;2022-12-31T17:46:13;16.60;98.20
48998;DHT22;34807;51.456;7.244;2022-12-31T17:48:40;16.60;98.60
48998;DHT22;34807;51.456;7.244;2022-12-31T17:51:05;16.60;98.30
48998;DHT22;34807;51.456;7.244;2022-12-31T17:53:31;16.70;97.40
48998;DHT22;34807;51.456;7.244;2022-12-31T17:55:59;16.90;97.30
48998;DHT22;34807;51.456;7.244;2022-12-31T17:58:32;16.90;96.40
48998;DHT22;34807;51.456;7.244;2022-12-31T18:00:59;16.90;97.30
48998;DHT22;34807;51.456;7.244;2022-12-31T18:03:24;16.90;97.10
48998;DHT22;34807;51.456;7.244;2022-12-31T18:05:50;16.90;96.40
48998;DHT22;34807;51.456;7.244;2022-12-31T18:08:15;17.00;96.40
48998;DHT22;34807;51.456;7.244;2022-12-31T18:10:41;17.10;95.40
48998;DHT22;34807;51.456;7.244;2022-12-31T18:13:10;17.10;95.40
48998;DHT22;34807;51.456;7.244;2022-12-31T18:15:38;17.10;96.10
48998;DHT22;34807;51.456;7.244;2022-12-31T18:18:13;17.00;96.20
48998;DHT22;34807;51.456;7.244;2022-12-31T18:20:40;17.10;95.80
48998;DHT22;34807;51.456;7.244;2022-12-31T18:23:07;17.30;94.80
48998;DHT22;34807;51.456;7.244;2022-12-31T18:25:34;17.40;94.40
48998;DHT22;34807;51.456;7.244;2022-12-31T18:27:59;17.40;93.30
48998;DHT22;34807;51.456;7.244;2022-12-31T18:30:25;17.70;93.40
48998;DHT22;34807;51.456;7.244;2022-12-31T18:32:50;17.80;92.40
48998;DHT22;34807;51.456;7.244;2022-12-31T18:35:17;17.70;91.80
48998;DHT22;34807;51.456;7.244;2022-12-31T18:37:43;17.80;91.60
48998;DHT22;34807;51.456;7.244;2022-12-31T18:40:10;17.90;90.80
48998;DHT22;34807;51.456;7.244;2022-12-31T18:42:35;17.70;91.10
48998;DHT22;34807;51.456;7.244;2022-12-31T18:45:01;17.40;91.70
48998;DHT22;34807;51.456;7.244;2022-12-31T18:47:27;17.10;92.60
48998;DHT22;34807;51.456;7.244;2022-12-31T18:49:53;16.70;92.60
48998;DHT22;34807;51.456;7.244;2022-12-31T18:52:20;16.40;93.80
48998;DHT22;34807;51.456;7.244;2022-12-31T18:54:46;16.10;93.30
48998;DHT22;34807;51.456;7.244;2022-12-31T18:57:12;16.00;93.90
48998;DHT22;34807;51.456;7.244;2022-12-31T18:59:38;15.90;94.50
48998;DHT22;34807;51.456;7.244;2022-12-31T19:02:03;15.80;94.40
48998;DHT22;34807;51.456;7.244;2022-12-31T19:04:29;15.70;95.40
48998;DHT22;34807;51.456;7.244;2022-12-31T19:06:55;15.50;95.20
48998;DHT22;34807;51.456;7.244;2022-12-31T19:09:20;15.30;95.00
48998;DHT22;34807;51.456;7.244;2022-12-31T19:11:46;15.10;94.60
48998;DHT22;34807;51.456;7.244;2022-12-31T19:14:17;15.00;95.80
48998;DHT22;34807;51.456;7.244;2022-12-31T19:16:43;14.90;95.30
48998;DHT22;34807;51.456;7.244;2022-12-31T19:19:10;14.80;94.50
48998;DHT22;34807;51.456;7.244;2022-12-31T19:21:35;14.70;94.80
48998;DHT22;34807;51.456;7.244;2022-12-31T19:24:01;14.60;94.70
48998;DHT22;34807;51.456;7.244;2022-12-31T19:26:26;14.60;95.00
48998;DHT22;34807;51.456;7.244;2022-12-31T19:28:51;14.50;95.10
48998;DHT22;34807;51.456;7.244;2022-12-31T19:31:17;14.40;94.70
48998;DHT22;34807;51.456;7.244;2022-12-31T19:33:43;14.50;95.90
48998;DHT22;34807;51.456;7.244;2022-12-31T19:36:18;14.70;95.30
48998;DHT22;34807;51.456;7.244;2022-12-31T19:38:43;14.80;93.90
48998;DHT22;34807;51.456;7.244;2022-12-31T19:41:18;14.90;93.90
48998;DHT22;34807;51.456;7.244;2022-12-31T19:43:45;14.90;94.30
48998;DHT22;34807;51.456;7.244;2022-12-31T19:46:14;14.90;94.60
48998;DHT22;34807;51.456;7.244;2022-12-31T19:48:40;15.00;94.80
48998;DHT22;34807;51.456;7.244;2022-12-31T19:51:09;15.00;94.50
48998;DHT22;34807;51.456;7.244;2022-12-31T19:53:35;15.00;94.40
48998;DHT22;34807;51.456;7.244;2022-12-31T19:56:00;15.00;94.10
48998;DHT22;34807;51.456;7.244;2022-12-31T19:58:26;15.00;94.40
48998;DHT22;34807;51.456;7.244;2022-12-31T20:00:56;15.00;94.00
48998;DHT22;34807;51.456;7.244;2022-12-31T20:03:21;15.00;94.60
48998;DHT22;34807;51.456;7.244;2022-12-31T20:05:47;15.00;94.50
48998;DHT22;34807;51.456;7.244;2022-12-31T20:08:13;15.00;94.20
48998;DHT22;34807;51.456;7.244;2022-12-31T20:10:41;15.00;93.70
48998;DHT22;34807;51.456;7.244;2022-12-31T20:13:06;14.80;94.60